Irona, New York
Current Conditions -  °F | °C
As of 1:53 AM on Saturday 29 Nov 2014 (Local Time) from KPBG Reporting Station
Clear Clear  
Wind Chill:   Ceiling: Unl
Heat Index: 13°   Visibility: 10mi
Dew Point: 10°   Wind: 5mph
Humidity: 88%   Direction: 280°W
Pressure: 30.22"   Gusts: NA
Location:  44.8543°N, 73.663°W
Report Text: KPBG 290653Z AUTO 28004KT 10SM CLR M11/M12 A3022 RMK AO2 SLP239 T11061122
Loading
Personal Weather Stations






























Interactive Weather Map New forecast layout! Learn more

10-Day Weather Forecast

Advertisements
Track Severe Weather on mobile